createdAt,value
2022-12-22T00:01:32.009Z,100.00
2022-12-22T00:04:18.015Z,100.00
2022-12-22T00:07:03.325Z,100.00
2022-12-22T00:09:48.442Z,100.00
2022-12-22T00:12:34.256Z,100.00
2022-12-22T00:15:19.454Z,100.00
2022-12-22T00:18:04.648Z,100.00
2022-12-22T00:20:49.964Z,100.00
2022-12-22T00:23:35.186Z,100.00
2022-12-22T00:26:20.448Z,100.00
2022-12-22T00:29:05.878Z,100.00
2022-12-22T00:31:51.131Z,100.00
2022-12-22T00:34:38.533Z,100.00
2022-12-22T00:37:23.840Z,100.00
2022-12-22T00:40:09.133Z,100.00
2022-12-22T00:42:54.447Z,100.00
2022-12-22T00:45:39.674Z,100.00
2022-12-22T00:48:26.975Z,100.00
2022-12-22T00:51:12.980Z,100.00
2022-12-22T00:53:59.648Z,100.00
2022-12-22T00:56:45.073Z,100.00
2022-12-22T00:59:30.158Z,100.00
2022-12-22T01:02:15.729Z,100.00
2022-12-22T01:05:01.315Z,100.00
2022-12-22T01:07:46.572Z,100.00
2022-12-22T01:10:32.798Z,100.00
2022-12-22T01:13:18.018Z,100.00
2022-12-22T01:16:03.502Z,100.00
2022-12-22T01:18:48.693Z,100.00
2022-12-22T01:21:34.880Z,100.00
2022-12-22T01:24:20.149Z,100.00
2022-12-22T01:27:05.264Z,100.00
2022-12-22T01:29:50.354Z,100.00
2022-12-22T01:32:35.548Z,100.00
2022-12-22T01:35:20.740Z,100.00
2022-12-22T01:38:06.238Z,100.00
2022-12-22T01:40:51.554Z,100.00
2022-12-22T01:43:42.805Z,100.00
2022-12-22T01:46:51.419Z,100.00
2022-12-22T01:49:52.682Z,100.00
2022-12-22T01:52:38.902Z,100.00
2022-12-22T01:55:27.722Z,100.00
2022-12-22T01:58:13.163Z,100.00
2022-12-22T02:00:59.618Z,100.00
2022-12-22T02:03:45.020Z,100.00
2022-12-22T02:06:42.645Z,100.00
2022-12-22T02:09:36.066Z,100.00
2022-12-22T02:12:30.078Z,100.00
2022-12-22T02:15:24.003Z,100.00
2022-12-22T02:18:29.655Z,100.00
2022-12-22T02:21:19.782Z,100.00
2022-12-22T02:24:14.860Z,100.00
2022-12-22T02:27:02.740Z,100.00
2022-12-22T02:30:14.558Z,100.00
2022-12-22T02:33:09.264Z,100.00
2022-12-22T02:36:07.683Z,100.00
2022-12-22T02:39:08.470Z,100.00
2022-12-22T02:42:08.743Z,100.00
2022-12-22T02:44:57.042Z,100.00
2022-12-22T02:47:46.819Z,100.00
2022-12-22T02:50:35.435Z,100.00
2022-12-22T02:53:21.349Z,100.00
2022-12-22T02:56:06.640Z,100.00
2022-12-22T02:58:53.231Z,100.00
2022-12-22T03:01:38.594Z,100.00
2022-12-22T03:04:24.063Z,100.00
2022-12-22T03:07:09.449Z,100.00
2022-12-22T03:09:54.745Z,100.00
2022-12-22T03:12:40.023Z,100.00
2022-12-22T03:15:25.225Z,100.00
2022-12-22T03:18:10.589Z,100.00
2022-12-22T03:20:55.943Z,100.00
2022-12-22T03:23:41.180Z,100.00
2022-12-22T03:26:07.823Z,100.00
2022-12-22T03:28:34.370Z,100.00
2022-12-22T03:31:02.695Z,100.00
2022-12-22T03:33:29.962Z,100.00
2022-12-22T03:35:56.586Z,100.00
2022-12-22T03:38:23.178Z,100.00
2022-12-22T03:40:49.805Z,100.00
2022-12-22T03:43:35.689Z,100.00
2022-12-22T03:46:29.243Z,100.00
2022-12-22T03:49:12.202Z,100.00
2022-12-22T03:51:43.760Z,100.00
2022-12-22T03:54:11.253Z,100.00
2022-12-22T03:56:38.184Z,100.00
2022-12-22T03:59:04.940Z,100.00
2022-12-22T04:01:32.372Z,100.00
2022-12-22T04:03:59.138Z,100.00
2022-12-22T04:06:25.910Z,100.00
2022-12-22T04:08:52.587Z,100.00
2022-12-22T04:11:37.868Z,100.00
2022-12-22T04:14:04.500Z,100.00
2022-12-22T04:16:32.885Z,100.00
2022-12-22T04:18:59.831Z,100.00
2022-12-22T04:21:26.525Z,100.00
2022-12-22T04:23:53.311Z,100.00
2022-12-22T04:26:20.764Z,100.00
2022-12-22T04:28:47.402Z,100.00
2022-12-22T04:31:14.015Z,100.00
2022-12-22T04:33:40.646Z,100.00
2022-12-22T04:36:07.683Z,100.00
2022-12-22T04:38:34.894Z,100.00
2022-12-22T04:41:01.461Z,100.00
2022-12-22T04:43:28.038Z,100.00
2022-12-22T04:45:55.085Z,100.00
2022-12-22T04:48:21.895Z,100.00
2022-12-22T04:50:52.155Z,100.00
2022-12-22T04:53:18.860Z,100.00
2022-12-22T04:55:47.032Z,100.00
2022-12-22T04:58:13.959Z,100.00
2022-12-22T05:00:40.639Z,100.00
2022-12-22T05:03:07.515Z,100.00
2022-12-22T05:05:34.703Z,100.00
2022-12-22T05:08:01.709Z,100.00
2022-12-22T05:10:28.504Z,100.00
2022-12-22T05:12:55.056Z,100.00
2022-12-22T05:15:22.575Z,100.00
2022-12-22T05:17:49.180Z,100.00
2022-12-22T05:20:16.107Z,100.00
2022-12-22T05:22:42.984Z,100.00
2022-12-22T05:25:09.770Z,100.00
2022-12-22T05:27:36.530Z,100.00
2022-12-22T05:30:03.718Z,100.00
2022-12-22T05:32:32.814Z,100.00
2022-12-22T05:34:59.535Z,100.00
2022-12-22T05:37:27.033Z,100.00
2022-12-22T05:39:53.963Z,100.00
2022-12-22T05:42:35.893Z,100.00
2022-12-22T05:45:04.118Z,100.00
2022-12-22T05:47:30.705Z,100.00
2022-12-22T05:49:57.379Z,100.00
2022-12-22T05:52:24.011Z,100.00
2022-12-22T05:54:50.539Z,100.00
2022-12-22T05:57:17.136Z,100.00
2022-12-22T05:59:43.783Z,100.00
2022-12-22T06:02:10.511Z,100.00
2022-12-22T06:04:37.182Z,100.00
2022-12-22T06:07:03.761Z,100.00
2022-12-22T06:09:30.452Z,100.00
2022-12-22T06:11:57.098Z,100.00
2022-12-22T06:14:23.658Z,100.00
2022-12-22T06:16:50.346Z,100.00
2022-12-22T06:19:16.955Z,100.00
2022-12-22T06:21:43.491Z,100.00
2022-12-22T06:24:10.164Z,100.00
2022-12-22T06:26:36.719Z,100.00
2022-12-22T06:29:03.290Z,100.00
2022-12-22T06:31:30.059Z,100.00
2022-12-22T06:33:56.705Z,100.00
2022-12-22T06:36:23.328Z,100.00
2022-12-22T06:38:49.979Z,100.00
2022-12-22T06:41:36.563Z,100.00
2022-12-22T06:44:03.202Z,100.00
2022-12-22T06:46:29.818Z,100.00
2022-12-22T06:48:56.521Z,100.00
2022-12-22T06:51:23.226Z,100.00
2022-12-22T06:53:49.795Z,100.00
2022-12-22T06:56:16.403Z,100.00
2022-12-22T06:58:42.917Z,100.00
2022-12-22T07:01:09.470Z,100.00
2022-12-22T07:03:36.158Z,100.00
2022-12-22T07:06:02.751Z,100.00
2022-12-22T07:08:29.299Z,100.00
2022-12-22T07:10:58.600Z,100.00
2022-12-22T07:13:27.406Z,100.00
2022-12-22T07:16:00.625Z,100.00
2022-12-22T07:18:32.655Z,100.00
2022-12-22T07:20:59.787Z,100.00
2022-12-22T07:23:26.808Z,100.00
2022-12-22T07:25:53.877Z,100.00
2022-12-22T07:28:21.337Z,100.00
2022-12-22T07:30:49.404Z,100.00
2022-12-22T07:33:16.317Z,100.00
2022-12-22T07:35:43.021Z,100.00
2022-12-22T07:38:09.811Z,100.00
2022-12-22T07:40:41.337Z,100.00
2022-12-22T07:43:08.685Z,100.00
2022-12-22T07:45:35.434Z,100.00
2022-12-22T07:48:22.608Z,100.00
2022-12-22T07:50:49.228Z,100.00
2022-12-22T07:53:15.796Z,100.00
2022-12-22T07:55:42.439Z,100.00
2022-12-22T07:58:09.037Z,100.00
2022-12-22T08:00:35.628Z,100.00
2022-12-22T08:03:02.849Z,100.00
2022-12-22T08:05:29.597Z,100.00
2022-12-22T08:07:56.187Z,100.00
2022-12-22T08:10:22.789Z,100.00
2022-12-22T08:12:49.429Z,100.00
2022-12-22T08:15:16.093Z,100.00
2022-12-22T08:17:42.733Z,100.00
2022-12-22T08:20:09.597Z,100.00
2022-12-22T08:22:36.221Z,100.00
2022-12-22T08:25:02.929Z,100.00
2022-12-22T08:27:49.787Z,100.00
2022-12-22T08:30:16.520Z,100.00
2022-12-22T08:32:43.615Z,100.00
2022-12-22T08:35:10.534Z,100.00
2022-12-22T08:37:41.477Z,100.00
2022-12-22T08:40:10.780Z,100.00
2022-12-22T08:42:37.689Z,100.00
2022-12-22T08:45:09.105Z,100.00
2022-12-22T08:47:35.712Z,100.00
2022-12-22T08:50:02.338Z,100.00
2022-12-22T08:52:28.964Z,100.00
2022-12-22T08:54:55.521Z,100.00
2022-12-22T08:57:22.094Z,100.00
2022-12-22T08:59:48.776Z,100.00
2022-12-22T09:02:15.478Z,100.00
2022-12-22T09:04:42.129Z,100.00
2022-12-22T09:07:08.702Z,100.00
2022-12-22T09:09:35.290Z,100.00
2022-12-22T09:12:02.962Z,100.00
2022-12-22T09:14:30.450Z,100.00
2022-12-22T09:16:57.287Z,100.00
2022-12-22T09:19:23.942Z,100.00
2022-12-22T09:21:50.717Z,100.00
2022-12-22T09:24:17.885Z,100.00
2022-12-22T09:26:44.704Z,100.00
2022-12-22T09:29:11.342Z,100.00
2022-12-22T09:31:38.011Z,100.00
2022-12-22T09:34:04.674Z,100.00
2022-12-22T09:36:31.921Z,100.00
2022-12-22T09:38:58.524Z,100.00
2022-12-22T09:41:34.984Z,100.00
2022-12-22T09:44:05.459Z,100.00
2022-12-22T09:46:34.212Z,100.00
2022-12-22T09:49:00.877Z,100.00
2022-12-22T09:51:27.807Z,100.00
2022-12-22T09:53:57.063Z,100.00
2022-12-22T09:56:24.478Z,100.00
2022-12-22T09:58:51.097Z,100.00
2022-12-22T10:01:23.940Z,100.00
2022-12-22T10:04:01.774Z,100.00
2022-12-22T10:06:48.674Z,100.00
2022-12-22T10:09:48.185Z,100.00
2022-12-22T10:12:07.083Z,100.00
2022-12-22T10:14:33.607Z,100.00
2022-12-22T10:17:18.848Z,100.00
2022-12-22T10:19:46.005Z,100.00
2022-12-22T10:22:18.532Z,100.00
2022-12-22T10:24:45.226Z,100.00
2022-12-22T10:27:12.052Z,100.00
2022-12-22T10:29:38.911Z,100.00
2022-12-22T10:32:12.023Z,100.00
2022-12-22T10:34:57.923Z,100.00
2022-12-22T10:37:30.295Z,100.00
2022-12-22T10:39:56.954Z,100.00
2022-12-22T10:42:23.547Z,100.00
2022-12-22T10:44:50.577Z,100.00
2022-12-22T10:47:24.134Z,100.00
2022-12-22T10:52:29.221Z,100.00
2022-12-22T10:55:15.771Z,100.00
2022-12-22T10:57:42.395Z,100.00
2022-12-22T11:00:28.554Z,100.00
2022-12-22T11:02:59.804Z,100.00
2022-12-22T11:05:27.061Z,100.00
2022-12-22T11:07:54.255Z,100.00
2022-12-22T11:10:32.164Z,100.00
2022-12-22T11:13:00.355Z,100.00
2022-12-22T11:15:32.940Z,100.00
2022-12-22T11:18:05.525Z,100.00
2022-12-22T11:20:39.531Z,100.00
2022-12-22T11:23:08.856Z,100.00
2022-12-22T11:25:41.362Z,100.00
2022-12-22T11:28:07.932Z,100.00
2022-12-22T11:30:34.738Z,100.00
2022-12-22T11:33:01.314Z,100.00
2022-12-22T11:35:46.147Z,100.00
2022-12-22T11:38:31.396Z,100.00
2022-12-22T11:41:09.680Z,100.00
2022-12-22T11:43:51.653Z,100.00
2022-12-22T11:46:30.352Z,100.00
2022-12-22T11:49:15.886Z,100.00
2022-12-22T11:51:48.865Z,100.00
2022-12-22T11:54:27.345Z,100.00
2022-12-22T11:57:05.487Z,100.00
2022-12-22T11:59:40.672Z,100.00
2022-12-22T12:02:13.101Z,100.00
2022-12-22T12:04:39.791Z,100.00
2022-12-22T12:07:21.957Z,65.82
2022-12-22T12:10:07.316Z,56.93
2022-12-22T12:12:52.326Z,53.74
2022-12-22T12:15:27.781Z,48.63
2022-12-22T12:18:12.859Z,45.55
2022-12-22T12:20:39.429Z,43.24
2022-12-22T12:23:07.302Z,41.32
2022-12-22T12:25:33.870Z,39.02
2022-12-22T12:28:06.389Z,37.79
2022-12-22T12:30:38.637Z,36.08
2022-12-22T12:33:15.881Z,34.99
2022-12-22T12:36:01.006Z,34.07
2022-12-22T12:39:06.135Z,33.55
2022-12-22T12:41:30.899Z,32.52
2022-12-22T12:43:58.373Z,31.92
2022-12-22T12:46:40.275Z,32.83
2022-12-22T12:49:26.854Z,32.17
2022-12-22T12:51:54.531Z,33.13
2022-12-22T12:54:22.463Z,32.66
2022-12-22T12:56:58.544Z,32.02
2022-12-22T12:59:48.391Z,31.82
2022-12-22T13:02:27.689Z,31.46
2022-12-22T13:05:13.131Z,30.27
2022-12-22T13:07:58.332Z,30.27
2022-12-22T13:10:25.342Z,30.01
2022-12-22T13:12:53.496Z,30.69
2022-12-22T13:15:37.151Z,30.43
2022-12-22T13:18:08.318Z,31.14
2022-12-22T13:20:36.505Z,31.00
2022-12-22T13:23:10.289Z,32.05
2022-12-22T13:25:48.706Z,32.48
2022-12-22T13:28:16.545Z,32.00
2022-12-22T13:30:47.919Z,32.27
2022-12-22T13:33:16.453Z,32.83
2022-12-22T13:35:47.839Z,33.03
2022-12-22T13:38:33.208Z,33.29
2022-12-22T13:41:00.891Z,34.41
2022-12-22T13:43:29.131Z,34.94
2022-12-22T13:45:57.720Z,36.06
2022-12-22T13:48:45.114Z,36.03
2022-12-22T13:51:22.785Z,36.80
2022-12-22T13:54:08.625Z,36.82
2022-12-22T13:56:41.947Z,36.47
2022-12-22T13:59:27.409Z,37.14
2022-12-22T14:02:01.252Z,37.80
2022-12-22T14:04:28.968Z,37.72
2022-12-22T14:06:56.113Z,37.28
2022-12-22T14:09:26.877Z,37.58
2022-12-22T14:12:02.507Z,37.35
2022-12-22T14:14:31.701Z,37.17
2022-12-22T14:17:00.455Z,37.92
2022-12-22T14:19:31.036Z,38.38
2022-12-22T14:22:08.433Z,39.38
2022-12-22T14:24:55.767Z,40.64
2022-12-22T14:27:35.298Z,42.27
2022-12-22T14:30:03.148Z,42.64
2022-12-22T14:32:41.018Z,42.88
2022-12-22T14:35:16.848Z,43.62
2022-12-22T14:37:43.376Z,44.58
2022-12-22T14:40:29.182Z,45.39
2022-12-22T14:42:56.743Z,47.85
2022-12-22T14:45:24.016Z,48.39
2022-12-22T14:47:51.346Z,49.98
2022-12-22T14:50:19.583Z,51.50
2022-12-22T14:52:46.248Z,52.64
2022-12-22T14:55:21.661Z,54.31
2022-12-22T14:57:51.692Z,54.57
2022-12-22T15:00:24.473Z,54.64
2022-12-22T15:02:58.669Z,54.80
2022-12-22T15:05:29.674Z,55.08
2022-12-22T15:08:12.666Z,56.53
2022-12-22T15:10:43.741Z,58.38
2022-12-22T15:13:18.401Z,59.45
2022-12-22T15:15:45.134Z,60.27
2022-12-22T15:18:13.878Z,62.62
2022-12-22T15:20:40.731Z,64.38
2022-12-22T15:23:12.581Z,65.02
2022-12-22T15:25:39.227Z,66.95
2022-12-22T15:28:05.850Z,69.23
2022-12-22T15:30:32.424Z,72.76
2022-12-22T15:32:59.099Z,75.38
2022-12-22T15:35:29.261Z,76.78
2022-12-22T15:37:55.927Z,77.78
2022-12-22T15:40:23.686Z,82.19
2022-12-22T15:42:50.608Z,82.91
2022-12-22T15:45:18.006Z,84.23
2022-12-22T15:47:47.683Z,85.33
2022-12-22T15:50:25.240Z,89.89
2022-12-22T15:52:53.629Z,91.76
2022-12-22T15:55:20.531Z,95.25
2022-12-22T15:57:49.408Z,100.00
2022-12-22T16:00:16.264Z,100.00
2022-12-22T16:02:43.101Z,100.00
2022-12-22T16:05:10.722Z,100.00
2022-12-22T16:07:38.777Z,100.00
2022-12-22T16:10:06.953Z,100.00
2022-12-22T16:12:34.294Z,100.00
2022-12-22T16:15:01.840Z,100.00
2022-12-22T16:17:29.260Z,100.00
2022-12-22T16:19:55.923Z,100.00
2022-12-22T16:22:36.670Z,100.00
2022-12-22T16:25:05.385Z,100.00
2022-12-22T16:27:32.140Z,100.00
2022-12-22T16:29:58.871Z,100.00
2022-12-22T16:32:27.042Z,100.00
2022-12-22T16:34:54.299Z,100.00
2022-12-22T16:37:20.971Z,100.00
2022-12-22T16:39:47.727Z,100.00
2022-12-22T16:45:00.409Z,100.00
2022-12-22T16:47:28.503Z,100.00
2022-12-22T16:49:55.338Z,100.00
2022-12-22T16:52:25.223Z,100.00
2022-12-22T16:54:52.924Z,100.00
2022-12-22T16:57:19.743Z,100.00
2022-12-22T16:59:46.327Z,100.00
2022-12-22T17:02:19.720Z,100.00
2022-12-22T17:04:46.621Z,100.00
2022-12-22T17:07:13.522Z,100.00
2022-12-22T17:10:01.817Z,100.00
2022-12-22T17:12:29.795Z,100.00
2022-12-22T17:14:57.301Z,100.00
2022-12-22T17:17:30.337Z,100.00
2022-12-22T17:19:59.651Z,100.00
2022-12-22T17:22:30.375Z,100.00
2022-12-22T17:24:59.251Z,100.00
2022-12-22T17:27:28.802Z,100.00
2022-12-22T17:29:56.269Z,100.00
2022-12-22T17:32:22.913Z,100.00
2022-12-22T17:34:49.969Z,100.00
2022-12-22T17:37:18.883Z,100.00
2022-12-22T17:39:47.369Z,100.00
2022-12-22T17:42:18.761Z,100.00
2022-12-22T17:44:45.783Z,100.00
2022-12-22T17:47:13.345Z,100.00
2022-12-22T17:49:40.102Z,100.00
2022-12-22T17:52:10.050Z,100.00
2022-12-22T17:54:36.689Z,100.00
2022-12-22T17:57:03.982Z,100.00
2022-12-22T17:59:30.854Z,100.00
2022-12-22T18:01:57.620Z,100.00
2022-12-22T18:04:24.283Z,100.00
2022-12-22T18:06:50.996Z,100.00
2022-12-22T18:09:23.350Z,100.00
2022-12-22T18:11:50.618Z,100.00
2022-12-22T18:14:18.519Z,100.00
2022-12-22T18:16:45.261Z,100.00
2022-12-22T18:19:11.939Z,100.00
2022-12-22T18:21:38.735Z,100.00
2022-12-22T18:24:05.677Z,100.00
2022-12-22T18:26:32.589Z,100.00
2022-12-22T18:28:59.909Z,100.00
2022-12-22T18:31:26.529Z,100.00
2022-12-22T18:33:53.437Z,100.00
2022-12-22T18:36:23.836Z,100.00
2022-12-22T18:38:50.633Z,100.00
2022-12-22T18:41:20.046Z,100.00
2022-12-22T18:43:46.959Z,100.00
2022-12-22T18:46:13.697Z,100.00
2022-12-22T18:48:40.542Z,100.00
2022-12-22T18:51:07.701Z,100.00
2022-12-22T18:53:34.564Z,100.00
2022-12-22T18:56:01.201Z,100.00
2022-12-22T18:58:27.891Z,100.00
2022-12-22T19:00:55.260Z,100.00
2022-12-22T19:03:24.004Z,100.00
2022-12-22T19:05:51.073Z,100.00
2022-12-22T19:08:18.951Z,100.00
2022-12-22T19:10:48.147Z,100.00
2022-12-22T19:13:38.165Z,100.00
2022-12-22T19:16:05.696Z,100.00
2022-12-22T19:18:32.385Z,100.00
2022-12-22T19:20:59.671Z,100.00
2022-12-22T19:23:26.331Z,100.00
2022-12-22T19:25:54.780Z,100.00
2022-12-22T19:28:31.350Z,100.00
2022-12-22T19:30:58.097Z,100.00
2022-12-22T19:33:35.654Z,100.00
2022-12-22T19:36:02.579Z,100.00
2022-12-22T19:38:30.453Z,100.00
2022-12-22T19:41:00.262Z,100.00
2022-12-22T19:43:27.112Z,100.00
2022-12-22T19:45:54.971Z,100.00
2022-12-22T19:48:25.971Z,100.00
2022-12-22T19:50:53.270Z,100.00
2022-12-22T19:53:20.266Z,100.00
2022-12-22T19:55:50.893Z,100.00
2022-12-22T19:58:25.322Z,100.00
2022-12-22T20:00:52.131Z,100.00
2022-12-22T20:03:23.266Z,100.00
2022-12-22T20:05:50.393Z,100.00
2022-12-22T20:08:17.271Z,100.00
2022-12-22T20:10:44.814Z,100.00
2022-12-22T20:13:16.169Z,100.00
2022-12-22T20:15:43.047Z,100.00
2022-12-22T20:18:17.923Z,100.00
2022-12-22T20:20:46.068Z,100.00
2022-12-22T20:23:15.201Z,100.00
2022-12-22T20:25:43.956Z,100.00
2022-12-22T20:28:15.134Z,100.00
2022-12-22T20:30:41.862Z,100.00
2022-12-22T20:33:08.668Z,100.00
2022-12-22T20:35:36.535Z,100.00
2022-12-22T20:38:11.969Z,100.00
2022-12-22T20:40:38.614Z,100.00
2022-12-22T20:43:05.469Z,100.00
2022-12-22T20:45:32.207Z,100.00
2022-12-22T20:47:59.468Z,100.00
2022-12-22T20:50:27.763Z,100.00
2022-12-22T20:52:55.077Z,100.00
2022-12-22T20:55:23.826Z,100.00
2022-12-22T20:57:51.067Z,100.00
2022-12-22T21:00:18.100Z,100.00
2022-12-22T21:02:44.924Z,100.00
2022-12-22T21:05:11.810Z,100.00
2022-12-22T21:07:38.330Z,100.00
2022-12-22T21:10:05.174Z,100.00
2022-12-22T21:12:31.815Z,100.00
2022-12-22T21:14:58.411Z,100.00
2022-12-22T21:17:25.039Z,100.00
2022-12-22T21:19:51.693Z,100.00
2022-12-22T21:22:18.343Z,100.00
2022-12-22T21:24:44.937Z,100.00
2022-12-22T21:27:19.082Z,100.00
2022-12-22T21:29:45.994Z,100.00
2022-12-22T21:32:15.722Z,100.00
2022-12-22T21:34:42.276Z,100.00
2022-12-22T21:37:15.032Z,100.00
2022-12-22T21:39:44.747Z,100.00
2022-12-22T21:42:15.466Z,100.00
2022-12-22T21:44:42.049Z,100.00
2022-12-22T21:47:16.570Z,100.00
2022-12-22T21:49:43.136Z,100.00
2022-12-22T21:52:09.640Z,100.00
2022-12-22T21:54:36.264Z,100.00
2022-12-22T21:57:02.888Z,100.00
2022-12-22T21:59:29.545Z,100.00
2022-12-22T22:01:56.806Z,100.00
2022-12-22T22:04:23.581Z,100.00
2022-12-22T22:06:50.288Z,100.00
2022-12-22T22:09:16.869Z,100.00
2022-12-22T22:12:03.780Z,100.00
2022-12-22T22:14:30.504Z,100.00
2022-12-22T22:16:57.103Z,100.00
2022-12-22T22:19:23.789Z,100.00
2022-12-22T22:21:50.403Z,100.00
2022-12-22T22:24:17.099Z,100.00
2022-12-22T22:26:49.235Z,100.00
2022-12-22T22:29:15.949Z,100.00
2022-12-22T22:31:42.605Z,100.00
2022-12-22T22:34:09.286Z,100.00
2022-12-22T22:36:35.882Z,100.00
2022-12-22T22:39:02.584Z,100.00
2022-12-22T22:41:33.041Z,100.00
2022-12-22T22:44:01.872Z,100.00
2022-12-22T22:46:28.447Z,100.00
2022-12-22T22:48:58.604Z,100.00
2022-12-22T22:51:25.413Z,100.00
2022-12-22T22:53:52.025Z,100.00
2022-12-22T22:56:18.599Z,100.00
2022-12-22T22:58:45.196Z,100.00
2022-12-22T23:01:11.903Z,100.00
2022-12-22T23:03:38.649Z,100.00
2022-12-22T23:06:06.974Z,100.00
2022-12-22T23:08:33.874Z,100.00
2022-12-22T23:11:00.907Z,100.00
2022-12-22T23:13:27.598Z,100.00
2022-12-22T23:15:55.014Z,100.00
2022-12-22T23:18:22.146Z,100.00
2022-12-22T23:20:49.071Z,100.00
2022-12-22T23:23:15.759Z,100.00
2022-12-22T23:25:46.059Z,100.00
2022-12-22T23:28:12.982Z,100.00
2022-12-22T23:30:43.513Z,100.00
2022-12-22T23:33:10.067Z,100.00
2022-12-22T23:35:37.453Z,100.00
2022-12-22T23:38:05.038Z,100.00
2022-12-22T23:40:51.603Z,100.00
2022-12-22T23:43:18.163Z,100.00
2022-12-22T23:45:44.750Z,100.00
2022-12-22T23:48:11.333Z,100.00
2022-12-22T23:50:37.980Z,100.00
2022-12-22T23:53:04.644Z,100.00
2022-12-22T23:55:31.309Z,100.00
2022-12-22T23:57:57.872Z,100.00
